Time;durP1;ratioP1;P1;durP2;ratioP2;P2;SDS_P1;SDS_P2;PMS_P1;PMS_P2;Temp;Humidity;BMP_temperature;BMP_pressure;BME280_temperature;BME280_humidity;BME280_pressure;Samples;Min_cycle;Max_cycle;Signal;HPM_P1;HPM_P2
2021/03/29 01:36:03;;;;;;;16.20;11.50;;;;;;;;;;5834486;22;9109626;-56
2021/03/29 01:38:31;;;;;;;13.67;9.70;;;;;;;;;;6218154;23;20468;-55
2021/03/29 01:40:59;;;;;;;17.27;11.23;;;;;;;;;;6218911;22;20478;-56
2021/03/29 01:43:28;;;;;;;15.27;10.73;;;;;;;;;;6218478;23;20013;-56
2021/03/29 01:45:56;;;;;;;17.53;11.90;;;;;;;;;;6218837;23;20411;-55
2021/03/29 01:48:24;;;;;;;14.43;10.90;;;;;;;;;;6218655;23;20418;-56
2021/03/29 01:50:55;;;;;;;15.37;11.47;;;;;;;;;;6218502;23;20434;-55
2021/03/29 01:53:26;;;;;;;21.77;11.17;;;;;;;;;;6218599;23;20001;-55
2021/03/29 01:55:54;;;;;;;15.13;11.10;;;;;;;;;;6219140;22;20422;-55
2021/03/29 01:58:22;;;;;;;22.80;11.43;;;;;;;;;;6218764;23;20068;-55
2021/03/29 02:00:51;;;;;;;17.70;11.30;;;;;;;;;;6218701;23;20005;-55
2021/03/29 02:03:20;;;;;;;20.37;10.87;;;;;;;;;;6218525;23;20423;-55
2021/03/29 02:05:47;;;;;;;20.63;11.53;;;;;;;;;;6217178;23;20061;-55
2021/03/29 02:08:16;;;;;;;20.03;10.10;;;;;;;;;;6218799;23;20434;-55
2021/03/29 02:10:43;;;;;;;20.07;11.37;;;;;;;;;;6218355;23;20419;-55
2021/03/29 02:13:11;;;;;;;13.97;10.63;;;;;;;;;;6218534;23;20427;-55
2021/03/29 02:15:38;;;;;;;15.53;10.03;;;;;;;;;;6217587;23;20438;-55
2021/03/29 02:18:11;;;;;;;18.57;11.40;;;;;;;;;;6218801;23;20434;-55
2021/03/29 02:20:39;;;;;;;16.27;10.27;;;;;;;;;;6218493;23;20463;-55
2021/03/29 02:23:07;;;;;;;15.80;9.97;;;;;;;;;;6218326;23;20415;-55
2021/03/29 02:25:36;;;;;;;16.87;9.93;;;;;;;;;;6218658;23;20008;-55
2021/03/29 02:28:04;;;;;;;19.93;10.83;;;;;;;;;;6218698;22;20422;-55
2021/03/29 02:30:35;;;;;;;16.20;11.53;;;;;;;;;;6218352;23;20053;-55
2021/03/29 02:33:04;;;;;;;14.70;9.17;;;;;;;;;;6216880;23;20454;-55
2021/03/29 02:35:32;;;;;;;19.07;9.67;;;;;;;;;;6216640;22;20457;-55
2021/03/29 02:38:02;;;;;;;14.60;9.57;;;;;;;;;;6212021;22;20434;-55
2021/03/29 02:40:29;;;;;;;22.13;10.63;;;;;;;;;;6211956;22;20441;-55
2021/03/29 02:42:57;;;;;;;15.43;9.50;;;;;;;;;;6211820;22;20441;-55
2021/03/29 02:45:26;;;;;;;15.93;9.97;;;;;;;;;;6211863;22;20442;-55
2021/03/29 02:47:55;;;;;;;16.57;10.40;;;;;;;;;;6211711;23;19997;-55
2021/03/29 02:50:24;;;;;;;11.57;9.23;;;;;;;;;;6211880;22;20419;-55
2021/03/29 02:52:53;;;;;;;19.80;9.80;;;;;;;;;;6211893;22;20483;-55
2021/03/29 02:55:21;;;;;;;13.40;10.17;;;;;;;;;;6211897;22;20431;-55
2021/03/29 02:57:49;;;;;;;16.17;9.03;;;;;;;;;;6211525;23;20423;-55
2021/03/29 03:00:21;;;;;;;24.77;12.37;;;;;;;;;;6211888;22;20453;-55
2021/03/29 03:02:49;;;;;;;18.53;10.13;;;;;;;;;;6211443;23;20459;-55
2021/03/29 03:05:16;;;;;;;16.93;10.03;;;;;;;;;;6211714;23;20012;-55
2021/03/29 03:07:44;;;;;;;14.90;9.17;;;;;;;;;;6211570;23;20423;-54
2021/03/29 03:10:12;;;;;;;15.80;10.50;;;;;;;;;;6211724;23;20008;-55
2021/03/29 03:12:44;;;;;;;12.00;9.43;;;;;;;;;;6211499;23;20454;-55
2021/03/29 03:15:21;;;;;;;11.23;9.37;;;;;;;;;;6211677;23;20090;-54
2021/03/29 03:17:49;;;;;;;12.43;9.10;;;;;;;;;;6211875;22;20462;-54
2021/03/29 03:20:17;;;;;;;14.63;9.80;;;;;;;;;;6211909;22;20449;-54
2021/03/29 03:22:54;;;;;;;14.63;9.50;;;;;;;;;;6211713;22;20461;-55
2021/03/29 03:25:23;;;;;;;19.27;11.27;;;;;;;;;;6211759;22;20434;-55
2021/03/29 03:27:51;;;;;;;14.30;9.23;;;;;;;;;;6211508;23;20431;-55
2021/03/29 03:30:22;;;;;;;15.83;9.03;;;;;;;;;;6212079;22;20492;-54
2021/03/29 03:32:50;;;;;;;16.93;9.17;;;;;;;;;;6212011;22;20053;-55
2021/03/29 03:35:19;;;;;;;12.70;9.10;;;;;;;;;;6214003;22;20502;-55
2021/03/29 03:37:49;;;;;;;11.47;8.93;;;;;;;;;;6211973;23;20053;-55
2021/03/29 03:40:18;;;;;;;10.87;9.27;;;;;;;;;;6213398;22;20008;-55
2021/03/29 03:42:45;;;;;;;13.17;8.73;;;;;;;;;;6211610;22;20434;-55
2021/03/29 03:45:12;;;;;;;16.57;9.27;;;;;;;;;;6212051;22;20005;-54
2021/03/29 03:47:40;;;;;;;12.00;9.20;;;;;;;;;;6211567;22;20439;-54
2021/03/29 03:50:10;;;;;;;11.07;9.03;;;;;;;;;;6211657;22;20031;-54
2021/03/29 03:52:39;;;;;;;15.97;10.53;;;;;;;;;;6211561;23;20076;-54
2021/03/29 03:55:08;;;;;;;16.17;8.67;;;;;;;;;;6211264;23;20089;-55
2021/03/29 03:57:39;;;;;;;15.53;8.97;;;;;;;;;;6211649;22;20431;-55
2021/03/29 04:00:07;;;;;;;12.97;9.13;;;;;;;;;;6213487;22;20469;-54
2021/03/29 04:02:35;;;;;;;11.43;9.10;;;;;;;;;;6211928;22;20418;-54
2021/03/29 04:05:04;;;;;;;12.70;9.00;;;;;;;;;;6211521;22;20441;-54
2021/03/29 04:07:32;;;;;;;11.90;8.63;;;;;;;;;;6211620;22;20453;-54
2021/03/29 04:10:07;;;;;;;12.40;9.63;;;;;;;;;;6211613;22;20426;-54
2021/03/29 04:12:35;;;;;;;17.33;10.38;;;;;;;;;;6211765;22;20031;-54
2021/03/29 04:15:03;;;;;;;17.13;10.10;;;;;;;;;;6211246;23;20472;-54
2021/03/29 04:17:30;;;;;;;14.53;9.20;;;;;;;;;;6211259;23;20419;-54
2021/03/29 04:19:57;;;;;;;17.20;9.93;;;;;;;;;;6213092;22;20008;-55
2021/03/29 04:22:25;;;;;;;15.73;10.50;;;;;;;;;;6211577;22;20004;-54
2021/03/29 04:24:53;;;;;;;15.00;10.00;;;;;;;;;;6211010;23;20449;-54
2021/03/29 04:27:20;;;;;;;17.50;10.00;;;;;;;;;;6211268;23;20419;-54
2021/03/29 04:29:47;;;;;;;13.40;9.77;;;;;;;;;;6211522;23;20438;-54
2021/03/29 04:32:14;;;;;;;12.83;10.30;;;;;;;;;;6211543;22;20449;-54
2021/03/29 04:34:41;;;;;;;14.67;10.70;;;;;;;;;;6251294;22;20023;-54
2021/03/29 04:37:08;;;;;;;14.10;9.87;;;;;;;;;;6181824;22;20439;-54
2021/03/29 04:39:36;;;;;;;13.60;10.40;;;;;;;;;;6181147;23;20454;-54
2021/03/29 04:42:03;;;;;;;12.33;8.97;;;;;;;;;;6181778;22;20431;-54
2021/03/29 04:44:30;;;;;;;13.10;10.67;;;;;;;;;;6181296;23;20020;-54
2021/03/29 04:46:57;;;;;;;17.40;10.63;;;;;;;;;;6181583;22;20001;-54
2021/03/29 04:49:24;;;;;;;14.40;10.00;;;;;;;;;;6181195;23;20030;-54
2021/03/29 04:51:52;;;;;;;13.90;11.13;;;;;;;;;;6181392;22;20450;-53
2021/03/29 04:54:19;;;;;;;15.83;11.00;;;;;;;;;;6181727;22;20012;-53
2021/03/29 04:56:47;;;;;;;14.27;10.83;;;;;;;;;;6182084;22;20450;-52
2021/03/29 04:59:14;;;;;;;18.03;10.67;;;;;;;;;;6180971;22;20495;-52
2021/03/29 05:01:41;;;;;;;15.03;11.33;;;;;;;;;;6181307;22;20493;-52
2021/03/29 05:04:08;;;;;;;14.50;11.67;;;;;;;;;;6180953;23;20444;-53
2021/03/29 05:06:35;;;;;;;16.93;11.30;;;;;;;;;;6182263;22;20440;-54
2021/03/29 05:09:04;;;;;;;16.57;11.83;;;;;;;;;;6181133;23;20005;-52
2021/03/29 05:11:45;;;;;;;12.70;10.33;;;;;;;;;;6338467;22;20437;-52
2021/03/29 05:14:13;;;;;;;17.60;11.03;;;;;;;;;;6338621;22;20486;-53
2021/03/29 05:16:40;;;;;;;15.77;11.17;;;;;;;;;;6308864;22;20003;-52
2021/03/29 05:19:07;;;;;;;13.33;10.23;;;;;;;;;;6338494;22;20007;-52
2021/03/29 05:21:34;;;;;;;12.97;10.93;;;;;;;;;;6338424;22;20429;-52
2021/03/29 05:24:01;;;;;;;13.87;10.33;;;;;;;;;;6338385;22;20498;-52
2021/03/29 05:26:28;;;;;;;15.67;10.60;;;;;;;;;;6337953;22;20432;-52
2021/03/29 05:28:55;;;;;;;16.23;11.03;;;;;;;;;;6338416;22;20421;-52
2021/03/29 05:31:23;;;;;;;14.73;10.53;;;;;;;;;;6338390;22;20447;-52
2021/03/29 05:33:50;;;;;;;13.60;10.37;;;;;;;;;;6337872;22;20517;-53
2021/03/29 05:36:17;;;;;;;13.83;10.30;;;;;;;;;;6338576;22;20007;-52
2021/03/29 05:38:45;;;;;;;16.07;10.97;;;;;;;;;;6338410;22;20486;-52
2021/03/29 05:41:13;;;;;;;17.27;11.50;;;;;;;;;;6338450;22;20413;-52
2021/03/29 05:43:40;;;;;;;19.33;11.20;;;;;;;;;;6338700;22;20011;-52
2021/03/29 05:46:07;;;;;;;15.10;10.67;;;;;;;;;;6210896;22;20423;-52
2021/03/29 05:48:36;;;;;;;13.87;10.10;;;;;;;;;;6210496;23;20453;-52
2021/03/29 05:51:07;;;;;;;17.57;11.00;;;;;;;;;;6210508;23;20514;-53
2021/03/29 05:53:38;;;;;;;16.17;9.70;;;;;;;;;;6210960;22;20441;-52
2021/03/29 05:56:08;;;;;;;16.40;10.37;;;;;;;;;;6211095;22;20500;-52
2021/03/29 05:58:40;;;;;;;13.70;10.47;;;;;;;;;;6211133;22;20442;-52
2021/03/29 06:01:08;;;;;;;12.23;10.20;;;;;;;;;;6210787;22;20508;-52
2021/03/29 06:03:37;;;;;;;15.27;10.73;;;;;;;;;;6210615;23;20009;-52
2021/03/29 06:06:16;;;;;;;13.23;10.40;;;;;;;;;;6210633;22;20439;-52
2021/03/29 06:08:44;;;;;;;17.73;11.03;;;;;;;;;;6210730;22;20529;-52
2021/03/29 06:11:26;;;;;;;12.87;9.80;;;;;;;;;;6212031;22;20446;-53
2021/03/29 06:14:12;;;;;;;13.03;10.20;;;;;;;;;;6212161;22;20005;-52
2021/03/29 06:16:56;;;;;;;18.43;11.13;;;;;;;;;;6212161;23;20427;-52
2021/03/29 06:19:41;;;;;;;17.53;11.00;;;;;;;;;;6211743;23;20428;-52
2021/03/29 06:22:14;;;;;;;13.07;9.50;;;;;;;;;;6211809;23;20471;-52
2021/03/29 06:25:07;;;;;;;12.93;9.03;;;;;;;;;;6212284;22;20435;-52
2021/03/29 06:27:39;;;;;;;15.23;9.53;;;;;;;;;;6211610;23;20427;-52
2021/03/29 06:30:13;;;;;;;12.73;8.87;;;;;;;;;;6211949;22;20431;-52
2021/03/29 06:33:00;;;;;;;16.77;8.83;;;;;;;;;;6212359;22;20419;-52
2021/03/29 06:35:49;;;;;;;10.93;8.00;;;;;;;;;;6214985;22;20246;-52
2021/03/29 06:38:17;;;;;;;14.73;8.60;;;;;;;;;;6211755;23;20442;-52
2021/03/29 06:40:44;;;;;;;11.43;7.13;;;;;;;;;;6212046;22;20435;-52
2021/03/29 06:43:22;;;;;;;13.73;7.30;;;;;;;;;;6211875;22;20416;-52
2021/03/29 06:45:50;;;;;;;13.50;8.10;;;;;;;;;;6211875;22;20458;-52
2021/03/29 06:48:18;;;;;;;15.57;7.80;;;;;;;;;;6212220;22;20423;-52
2021/03/29 06:50:45;;;;;;;11.20;6.47;;;;;;;;;;6211926;22;20427;-52
2021/03/29 06:53:25;;;;;;;10.87;6.83;;;;;;;;;;6211921;22;20442;-52
2021/03/29 06:55:56;;;;;;;9.83;6.60;;;;;;;;;;6211861;22;20435;-52
2021/03/29 06:58:27;;;;;;;9.63;6.40;;;;;;;;;;6213623;22;20066;-52
2021/03/29 07:00:55;;;;;;;9.50;6.17;;;;;;;;;;6211951;22;20012;-52
2021/03/29 07:03:23;;;;;;;11.83;5.83;;;;;;;;;;6211931;22;20032;-52
2021/03/29 07:05:50;;;;;;;8.70;6.83;;;;;;;;;;6211776;22;20439;-52
2021/03/29 07:08:18;;;;;;;12.07;7.40;;;;;;;;;;6211864;22;20423;-52
2021/03/29 07:10:46;;;;;;;9.57;5.50;;;;;;;;;;6187381;22;20013;-52
2021/03/29 07:13:15;;;;;;;11.87;6.67;;;;;;;;;;6211957;22;20587;-52
2021/03/29 07:15:42;;;;;;;10.53;6.30;;;;;;;;;;6211804;22;20419;-52
2021/03/29 07:18:11;;;;;;;8.07;6.07;;;;;;;;;;6212260;22;20005;-52
2021/03/29 07:20:38;;;;;;;8.37;5.90;;;;;;;;;;6211728;22;20419;-52
2021/03/29 07:23:05;;;;;;;11.97;6.57;;;;;;;;;;6211940;22;20431;-53
2021/03/29 07:25:35;;;;;;;9.83;6.03;;;;;;;;;;6211709;22;20488;-52
2021/03/29 07:28:02;;;;;;;10.93;6.27;;;;;;;;;;6211845;22;20125;-52
2021/03/29 07:30:49;;;;;;;9.97;6.23;;;;;;;;;;6213743;22;20085;-52
2021/03/29 07:33:17;;;;;;;11.80;6.20;;;;;;;;;;6212077;22;20077;-52
2021/03/29 07:35:48;;;;;;;8.73;6.53;;;;;;;;;;6214111;22;20435;-52
2021/03/29 07:38:16;;;;;;;10.63;6.13;;;;;;;;;;6211689;22;20511;-53
2021/03/29 07:40:46;;;;;;;9.30;5.70;;;;;;;;;;6211574;23;20039;-52
2021/03/29 07:43:18;;;;;;;12.07;6.50;;;;;;;;;;6211562;22;20490;-52
2021/03/29 07:45:56;;;;;;;8.67;5.60;;;;;;;;;;6211480;23;20419;-52
2021/03/29 07:48:38;;;;;;;9.20;6.13;;;;;;;;;;6211450;22;20449;-52
2021/03/29 07:51:07;;;;;;;9.67;5.90;;;;;;;;;;6211613;22;20506;-52
2021/03/29 07:53:45;;;;;;;8.90;5.77;;;;;;;;;;6211612;22;20483;-52
2021/03/29 07:56:13;;;;;;;9.00;6.07;;;;;;;;;;6211697;22;20476;-52
2021/03/29 07:58:47;;;;;;;9.03;5.70;;;;;;;;;;6212064;22;20015;-52
2021/03/29 08:01:16;;;;;;;9.20;6.30;;;;;;;;;;6211624;22;20498;-52
2021/03/29 08:03:47;;;;;;;7.60;5.93;;;;;;;;;;6211380;22;20447;-52
2021/03/29 08:06:40;;;;;;;10.80;6.03;;;;;;;;;;6211778;23;20012;-52
2021/03/29 08:09:11;;;;;;;11.57;6.37;;;;;;;;;;6211214;23;20001;-52
2021/03/29 08:12:06;;;;;;;11.70;6.77;;;;;;;;;;6185372;23;20431;-52
2021/03/29 08:14:35;;;;;;;8.37;6.13;;;;;;;;;;6211105;23;20062;-52
2021/03/29 08:17:21;;;;;;;9.23;5.60;;;;;;;;;;6185406;23;20219;-52
2021/03/29 08:20:17;;;;;;;8.77;5.40;;;;;;;;;;6211481;22;20427;-53
2021/03/29 08:22:44;;;;;;;8.63;5.50;;;;;;;;;;6211393;23;20469;-52
2021/03/29 08:25:31;;;;;;;9.20;6.07;;;;;;;;;;6211790;22;20016;-52
2021/03/29 08:27:59;;;;;;;9.53;6.07;;;;;;;;;;6211527;22;20439;-52
2021/03/29 08:30:27;;;;;;;8.57;6.10;;;;;;;;;;6211850;22;20458;-52
2021/03/29 08:33:10;;;;;;;11.13;6.53;;;;;;;;;;6211164;22;20551;-52
2021/03/29 08:35:37;;;;;;;11.57;6.40;;;;;;;;;;6214015;22;20040;-52
2021/03/29 08:38:08;;;;;;;12.00;6.50;;;;;;;;;;6211732;22;20541;-52
2021/03/29 08:40:35;;;;;;;10.97;5.60;;;;;;;;;;6211437;22;20415;-52
2021/03/29 08:43:05;;;;;;;8.97;6.30;;;;;;;;;;6211348;22;20448;-52
2021/03/29 08:45:33;;;;;;;11.93;6.73;;;;;;;;;;6212045;22;20481;-52
2021/03/29 08:48:01;;;;;;;9.73;6.30;;;;;;;;;;6211527;22;20454;-52
2021/03/29 08:50:30;;;;;;;14.87;9.67;;;;;;;;;;6211386;22;20419;-52
2021/03/29 08:53:04;;;;;;;17.03;10.23;;;;;;;;;;6211840;22;20065;-52
2021/03/29 08:55:32;;;;;;;17.60;9.93;;;;;;;;;;6210896;23;20516;-52
2021/03/29 08:58:00;;;;;;;15.90;10.50;;;;;;;;;;6211724;22;20454;-52
2021/03/29 09:00:28;;;;;;;13.13;9.20;;;;;;;;;;6209841;23;20080;-52
2021/03/29 09:02:55;;;;;;;15.87;9.10;;;;;;;;;;6211294;22;20001;-52
2021/03/29 09:05:23;;;;;;;19.03;10.13;;;;;;;;;;6211644;22;20020;-52
2021/03/29 09:07:53;;;;;;;14.17;9.33;;;;;;;;;;6209980;23;20001;-52
2021/03/29 09:10:29;;;;;;;12.47;8.90;;;;;;;;;;6211258;22;20415;-52
2021/03/29 09:12:57;;;;;;;13.90;8.40;;;;;;;;;;6211149;22;20422;-52
2021/03/29 09:15:26;;;;;;;13.13;8.37;;;;;;;;;;6211116;22;20470;-52
2021/03/29 09:17:57;;;;;;;18.30;9.53;;;;;;;;;;6211171;22;20434;-52
2021/03/29 09:20:25;;;;;;;10.83;7.73;;;;;;;;;;6211141;22;20039;-52
2021/03/29 09:22:52;;;;;;;12.17;8.33;;;;;;;;;;6211061;22;20001;-52
2021/03/29 09:25:34;;;;;;;14.30;8.43;;;;;;;;;;6211430;22;20478;-52
2021/03/29 09:31:12;;;;;;;11.73;7.07;;;;;;;;;;6194768;23;20032;-52
2021/03/29 09:33:45;;;;;;;9.57;7.07;;;;;;;;;;6210830;22;20439;-52
2021/03/29 09:36:14;;;;;;;10.57;7.00;;;;;;;;;;6213221;22;20024;-52
2021/03/29 09:38:42;;;;;;;16.53;8.90;;;;;;;;;;6211062;22;20532;-52
2021/03/29 09:41:16;;;;;;;12.93;9.10;;;;;;;;;;6210794;23;20007;-52
2021/03/29 09:43:47;;;;;;;13.33;8.70;;;;;;;;;;6210844;22;20490;-52
2021/03/29 09:46:15;;;;;;;14.80;10.00;;;;;;;;;;6211919;22;20474;-52
2021/03/29 09:48:42;;;;;;;15.33;10.37;;;;;;;;;;6212288;23;20008;-52
2021/03/29 09:51:19;;;;;;;14.63;9.37;;;;;;;;;;6211925;23;20001;-52
2021/03/29 09:53:46;;;;;;;12.30;8.07;;;;;;;;;;6212357;23;20011;-52
2021/03/29 09:56:13;;;;;;;17.50;9.20;;;;;;;;;;6212311;22;20427;-52
2021/03/29 09:58:45;;;;;;;12.80;8.13;;;;;;;;;;6212517;22;20419;-52
2021/03/29 10:01:19;;;;;;;14.87;9.53;;;;;;;;;;6212422;22;20427;-52
2021/03/29 10:03:52;;;;;;;10.07;6.70;;;;;;;;;;6213677;22;20005;-52
2021/03/29 10:06:20;;;;;;;7.00;4.70;;;;;;;;;;6212120;22;20431;-52
2021/03/29 10:09:09;;;;;;;10.30;5.23;;;;;;;;;;6212119;22;19997;-52
2021/03/29 10:11:49;;;;;;;7.30;5.40;;;;;;;;;;6212037;22;20435;-52
2021/03/29 10:14:18;;;;;;;10.10;5.37;;;;;;;;;;6212449;22;20011;-52
2021/03/29 10:16:47;;;;;;;7.13;4.83;;;;;;;;;;6212385;22;20492;-52
2021/03/29 10:19:20;;;;;;;10.33;6.77;;;;;;;;;;6212136;22;20443;-52
2021/03/29 10:22:06;;;;;;;11.33;7.23;;;;;;;;;;6212141;22;20465;-52
2021/03/29 10:24:35;;;;;;;11.10;6.33;;;;;;;;;;6211882;22;20511;-52
2021/03/29 10:27:04;;;;;;;10.33;7.30;;;;;;;;;;6212067;22;20431;-52
2021/03/29 10:29:41;;;;;;;16.27;8.00;;;;;;;;;;6212037;22;20041;-52
2021/03/29 10:32:11;;;;;;;13.63;7.63;;;;;;;;;;6211906;23;20519;-52
2021/03/29 10:34:39;;;;;;;11.23;7.27;;;;;;;;;;6214226;22;20455;-52
2021/03/29 10:37:25;;;;;;;12.70;8.33;;;;;;;;;;6211841;23;20458;-52
2021/03/29 10:39:53;;;;;;;13.37;8.47;;;;;;;;;;6211896;22;20427;-52
2021/03/29 10:42:22;;;;;;;11.93;7.17;;;;;;;;;;6185788;23;20017;-52
2021/03/29 10:44:49;;;;;;;11.20;7.70;;;;;;;;;;6211810;22;20435;-52
2021/03/29 10:47:16;;;;;;;13.27;8.37;;;;;;;;;;6213478;22;20069;-52
2021/03/29 10:49:45;;;;;;;11.87;7.73;;;;;;;;;;6212093;22;20054;-52
2021/03/29 10:52:13;;;;;;;12.17;6.37;;;;;;;;;;6211904;22;20478;-52
2021/03/29 10:54:40;;;;;;;12.67;8.63;;;;;;;;;;6212242;22;20427;-51
2021/03/29 10:57:07;;;;;;;12.83;8.40;;;;;;;;;;6212088;22;20422;-52
2021/03/29 10:59:35;;;;;;;13.97;7.87;;;;;;;;;;6213655;22;20057;-51
2021/03/29 11:02:02;;;;;;;14.57;8.23;;;;;;;;;;6212315;22;20446;-52
2021/03/29 11:04:30;;;;;;;14.47;7.10;;;;;;;;;;6211705;22;20427;-52
2021/03/29 11:06:57;;;;;;;12.07;7.57;;;;;;;;;;6211780;23;20001;-52
2021/03/29 11:09:24;;;;;;;12.53;8.20;;;;;;;;;;6211874;22;20494;-52
2021/03/29 11:11:52;;;;;;;12.57;8.57;;;;;;;;;;6211875;22;20480;-52
2021/03/29 11:14:21;;;;;;;10.80;7.37;;;;;;;;;;6211695;22;20435;-52
2021/03/29 11:16:50;;;;;;;11.20;7.60;;;;;;;;;;6211815;22;20434;-52
2021/03/29 11:19:18;;;;;;;11.87;7.83;;;;;;;;;;6211786;22;20427;-52
2021/03/29 11:21:46;;;;;;;12.30;6.80;;;;;;;;;;6211856;22;20461;-52
2021/03/29 11:24:14;;;;;;;11.87;7.30;;;;;;;;;;6185350;23;20431;-52
2021/03/29 11:26:41;;;;;;;10.90;7.33;;;;;;;;;;6186031;22;20020;-52
2021/03/29 11:29:09;;;;;;;10.07;6.63;;;;;;;;;;6211810;22;20500;-52
2021/03/29 11:31:39;;;;;;;12.33;8.50;;;;;;;;;;6212199;22;20015;-52
2021/03/29 11:34:07;;;;;;;11.17;6.70;;;;;;;;;;6211509;22;20430;-52
2021/03/29 11:36:34;;;;;;;9.80;7.07;;;;;;;;;;6214168;22;20455;-52
2021/03/29 11:39:01;;;;;;;8.23;5.80;;;;;;;;;;6211640;23;20496;-52
2021/03/29 11:41:28;;;;;;;14.93;7.60;;;;;;;;;;6212229;22;20005;-52
2021/03/29 11:43:55;;;;;;;12.57;7.07;;;;;;;;;;6211632;22;20439;-52
2021/03/29 11:46:22;;;;;;;15.13;7.97;;;;;;;;;;6211664;22;20665;-52
2021/03/29 11:48:49;;;;;;;13.83;7.70;;;;;;;;;;6211727;22;20004;-52
2021/03/29 11:51:16;;;;;;;10.70;6.37;;;;;;;;;;6211679;22;20695;-51
2021/03/29 11:53:44;;;;;;;12.20;7.33;;;;;;;;;;6211634;22;20732;-52
2021/03/29 11:56:12;;;;;;;12.23;6.93;;;;;;;;;;6211881;22;20692;-52
2021/03/29 11:58:40;;;;;;;11.90;6.97;;;;;;;;;;6211649;22;20641;-52
2021/03/29 12:01:16;;;;;;;17.13;7.07;;;;;;;;;;6211587;22;20703;-52
2021/03/29 12:03:49;;;;;;;12.00;6.57;;;;;;;;;;6211897;22;20246;-52
2021/03/29 12:06:21;;;;;;;9.40;6.30;;;;;;;;;;6211536;22;20736;-52
2021/03/29 12:08:54;;;;;;;9.37;5.80;;;;;;;;;;6211009;22;20206;-52
2021/03/29 12:14:11;;;;;;;11.25;6.55;;;;;;;;;;6211468;23;20522;-52
2021/03/29 12:16:53;;;;;;;22.33;7.40;;;;;;;;;;6211541;22;20431;-52
2021/03/29 12:19:21;;;;;;;14.43;6.53;;;;;;;;;;6211252;23;20506;-52
2021/03/29 12:21:49;;;;;;;13.57;6.30;;;;;;;;;;6211965;22;20295;-52
2021/03/29 12:24:21;;;;;;;10.10;5.77;;;;;;;;;;6211741;22;20692;-52
2021/03/29 12:26:49;;;;;;;12.80;5.97;;;;;;;;;;6211572;22;20652;-52
2021/03/29 12:29:20;;;;;;;13.83;6.00;;;;;;;;;;6185460;22;20442;-52
2021/03/29 12:31:49;;;;;;;10.13;6.17;;;;;;;;;;6211384;22;20676;-52
2021/03/29 12:34:17;;;;;;;10.93;5.77;;;;;;;;;;6211312;22;20684;-52
2021/03/29 12:36:53;;;;;;;14.97;6.70;;;;;;;;;;6210777;22;20016;-52
2021/03/29 12:39:38;;;;;;;14.57;6.00;;;;;;;;;;6205361;23;20226;-52
2021/03/29 12:42:07;;;;;;;7.67;5.00;;;;;;;;;;6211272;23;20080;-52
2021/03/29 12:44:34;;;;;;;10.73;5.57;;;;;;;;;;6211247;22;20435;-52
2021/03/29 12:47:06;;;;;;;13.07;6.43;;;;;;;;;;6211754;22;20763;-52
2021/03/29 12:49:33;;;;;;;13.67;6.57;;;;;;;;;;6211463;22;20423;-52
2021/03/29 12:52:04;;;;;;;13.10;6.30;;;;;;;;;;6211707;22;20256;-52
2021/03/29 12:54:34;;;;;;;9.97;6.20;;;;;;;;;;6211242;22;20729;-52
2021/03/29 12:57:01;;;;;;;11.87;6.70;;;;;;;;;;6211109;22;20225;-52
2021/03/29 12:59:29;;;;;;;9.87;6.13;;;;;;;;;;6211321;22;20660;-53
2021/03/29 13:01:58;;;;;;;10.87;6.60;;;;;;;;;;6211201;23;20661;-52
2021/03/29 13:04:35;;;;;;;10.20;5.35;;;;;;;;;;6211276;22;20273;-52
2021/03/29 13:07:20;;;;;;;8.93;4.80;;;;;;;;;;6211304;22;20381;-52
2021/03/29 13:09:56;;;;;;;11.25;4.90;;;;;;;;;;6211221;23;20229;-52
2021/03/29 13:12:24;;;;;;;13.77;7.17;;;;;;;;;;6211170;23;20442;-52
2021/03/29 13:15:04;;;;;;;16.30;7.43;;;;;;;;;;6211552;22;20720;-52
2021/03/29 13:17:35;;;;;;;11.43;6.47;;;;;;;;;;6211208;22;20661;-52
2021/03/29 13:20:03;;;;;;;9.87;6.60;;;;;;;;;;6210973;22;20664;-52
2021/03/29 13:22:31;;;;;;;11.20;6.77;;;;;;;;;;6211574;22;20210;-52
2021/03/29 13:24:58;;;;;;;12.93;7.07;;;;;;;;;;6211944;22;20431;-52
2021/03/29 13:27:25;;;;;;;11.30;5.53;;;;;;;;;;6211137;22;20668;-53
2021/03/29 13:29:53;;;;;;;11.53;6.23;;;;;;;;;;6211109;22;20431;-53
2021/03/29 13:32:20;;;;;;;12.10;6.13;;;;;;;;;;6211117;22;20004;-52
2021/03/29 13:34:47;;;;;;;9.67;5.90;;;;;;;;;;6215492;22;20019;-52
2021/03/29 13:37:15;;;;;;;11.80;5.53;;;;;;;;;;6210795;23;20454;-52
2021/03/29 13:39:42;;;;;;;10.43;5.63;;;;;;;;;;6211008;22;20427;-52
2021/03/29 13:42:09;;;;;;;11.20;5.40;;;;;;;;;;6210995;22;20480;-53
2021/03/29 13:44:37;;;;;;;5.87;3.53;;;;;;;;;;6210996;22;20431;-53
2021/03/29 13:47:05;;;;;;;7.70;3.70;;;;;;;;;;6210765;23;20471;-53
2021/03/29 13:49:32;;;;;;;5.10;3.20;;;;;;;;;;6210972;22;20443;-52
2021/03/29 13:51:59;;;;;;;9.80;5.07;;;;;;;;;;6210837;22;20431;-53
2021/03/29 13:54:27;;;;;;;6.03;4.03;;;;;;;;;;6210771;22;20446;-53
2021/03/29 13:56:54;;;;;;;7.63;4.03;;;;;;;;;;6210793;23;20114;-53
2021/03/29 13:59:21;;;;;;;10.60;5.57;;;;;;;;;;6210918;22;20069;-53
2021/03/29 14:01:49;;;;;;;8.23;4.53;;;;;;;;;;6211166;22;20439;-54
2021/03/29 14:04:21;;;;;;;6.57;4.43;;;;;;;;;;6210498;23;20016;-55
2021/03/29 14:06:50;;;;;;;8.10;3.13;;;;;;;;;;6185124;23;20304;-53
2021/03/29 14:09:19;;;;;;;7.67;3.33;;;;;;;;;;6210753;22;20431;-54
2021/03/29 14:11:50;;;;;;;6.13;3.00;;;;;;;;;;6210731;22;20446;-53
2021/03/29 14:14:19;;;;;;;5.33;2.90;;;;;;;;;;6210581;22;20449;-53
2021/03/29 14:16:47;;;;;;;5.20;2.77;;;;;;;;;;6210705;22;20454;-53
2021/03/29 14:19:21;;;;;;;5.47;2.70;;;;;;;;;;6210650;22;20442;-53
2021/03/29 14:21:49;;;;;;;5.77;3.03;;;;;;;;;;6210602;22;20435;-53
2021/03/29 14:24:17;;;;;;;5.07;2.47;;;;;;;;;;6210714;22;20092;-53
2021/03/29 14:26:45;;;;;;;5.07;2.80;;;;;;;;;;6211023;22;20414;-53
2021/03/29 14:29:12;;;;;;;5.53;3.00;;;;;;;;;;6210713;22;20001;-53
2021/03/29 14:31:40;;;;;;;11.47;3.20;;;;;;;;;;6211319;22;20005;-53
2021/03/29 14:34:10;;;;;;;4.80;2.90;;;;;;;;;;6212263;22;20450;-53
2021/03/29 14:36:50;;;;;;;7.20;3.40;;;;;;;;;;6214304;22;20439;-53
2021/03/29 14:39:37;;;;;;;5.43;2.77;;;;;;;;;;6212036;22;20457;-53
2021/03/29 14:42:21;;;;;;;5.77;2.90;;;;;;;;;;6211969;23;19996;-53
2021/03/29 14:44:48;;;;;;;3.87;2.47;;;;;;;;;;6211783;23;20020;-53
2021/03/29 14:47:20;;;;;;;5.23;3.00;;;;;;;;;;6212337;22;20423;-53
2021/03/29 14:49:48;;;;;;;6.83;2.90;;;;;;;;;;6211908;22;20549;-53
2021/03/29 14:52:15;;;;;;;5.20;2.87;;;;;;;;;;6212009;22;20042;-53
2021/03/29 14:54:42;;;;;;;4.77;2.60;;;;;;;;;;6212373;22;20005;-53
2021/03/29 14:57:10;;;;;;;6.97;3.10;;;;;;;;;;6212001;22;20455;-53
2021/03/29 14:59:38;;;;;;;9.17;3.30;;;;;;;;;;6212323;22;20009;-53
2021/03/29 15:02:08;;;;;;;6.10;3.10;;;;;;;;;;6212360;22;20015;-53
2021/03/29 15:04:43;;;;;;;5.90;2.70;;;;;;;;;;6211719;22;20502;-53
2021/03/29 15:07:15;;;;;;;8.07;2.88;;;;;;;;;;6212252;22;20442;-53
2021/03/29 15:09:43;;;;;;;5.07;2.80;;;;;;;;;;6213734;22;20005;-53
2021/03/29 15:12:11;;;;;;;4.50;2.50;;;;;;;;;;6185606;23;20533;-53
2021/03/29 15:14:39;;;;;;;4.50;2.73;;;;;;;;;;6211696;22;20438;-53
2021/03/29 15:17:07;;;;;;;5.60;3.07;;;;;;;;;;6211901;22;20466;-53
2021/03/29 15:19:40;;;;;;;5.50;3.30;;;;;;;;;;6211898;22;20005;-53
2021/03/29 15:22:08;;;;;;;6.97;3.07;;;;;;;;;;6211871;22;20431;-53
2021/03/29 15:24:35;;;;;;;6.23;3.10;;;;;;;;;;6211581;22;20447;-53
2021/03/29 15:27:02;;;;;;;7.10;3.50;;;;;;;;;;6211816;22;20492;-53
2021/03/29 15:29:30;;;;;;;8.53;3.67;;;;;;;;;;6211689;22;20420;-53
2021/03/29 15:32:01;;;;;;;6.37;3.33;;;;;;;;;;6211807;22;20439;-53
2021/03/29 15:34:30;;;;;;;5.20;3.00;;;;;;;;;;6211680;22;20061;-53
2021/03/29 15:36:59;;;;;;;4.83;2.87;;;;;;;;;;6214250;22;20435;-53
2021/03/29 15:39:27;;;;;;;6.63;3.77;;;;;;;;;;6211687;22;20427;-53
2021/03/29 15:41:55;;;;;;;5.47;3.00;;;;;;;;;;6211634;23;20000;-53
2021/03/29 15:44:23;;;;;;;7.67;3.40;;;;;;;;;;6212556;22;20450;-53
2021/03/29 15:46:51;;;;;;;6.43;3.07;;;;;;;;;;6211820;22;20005;-53
2021/03/29 15:49:19;;;;;;;5.20;3.37;;;;;;;;;;6211674;22;20439;-53
2021/03/29 15:51:47;;;;;;;4.67;2.67;;;;;;;;;;6211875;22;20467;-53
2021/03/29 15:54:14;;;;;;;5.87;3.00;;;;;;;;;;6211641;22;20449;-53
2021/03/29 15:57:01;;;;;;;7.03;3.17;;;;;;;;;;6213189;22;20008;-53
2021/03/29 15:59:34;;;;;;;3.73;2.10;;;;;;;;;;6211662;22;20504;-53
2021/03/29 16:02:04;;;;;;;3.10;1.87;;;;;;;;;;6211573;22;20442;-53
2021/03/29 16:04:38;;;;;;;4.63;2.10;;;;;;;;;;6211390;22;20439;-53
2021/03/29 16:07:21;;;;;;;23.13;11.43;;;;;;;;;;6209222;23;20087;-53
2021/03/29 16:09:48;;;;;;;3.50;2.23;;;;;;;;;;6211353;23;20431;-53
2021/03/29 16:12:15;;;;;;;7.27;2.00;;;;;;;;;;6211479;23;20002;-53
2021/03/29 16:14:42;;;;;;;4.13;2.07;;;;;;;;;;6211534;22;20011;-53
2021/03/29 16:17:11;;;;;;;3.33;1.80;;;;;;;;;;6211639;22;20427;-53
2021/03/29 16:19:39;;;;;;;3.23;1.87;;;;;;;;;;6211663;22;20028;-53
2021/03/29 16:22:06;;;;;;;8.40;2.13;;;;;;;;;;6211626;22;20498;-53
2021/03/29 16:24:33;;;;;;;4.13;2.20;;;;;;;;;;6211806;22;20495;-53
2021/03/29 16:27:01;;;;;;;3.30;1.80;;;;;;;;;;6211525;22;20425;-53
2021/03/29 16:29:39;;;;;;;5.37;1.80;;;;;;;;;;6211366;23;20479;-53